Home > Products > Valid Products > MTR

000
SAUS45 KABQ 220354
MTRCQC
METAR KCQC 220353Z AUTO 30016KT 10SM CLR 02/M03 A2987 RMK AO2 SLP105
T00171028





000
SAUS45 KABQ 220354
MTRTCS
METAR KTCS 220353Z AUTO 30010KT 10SM CLR 12/M02 A2993 RMK AO2 SLP107
T01171017 TSNO





000
SAUS45 KABQ 220353
MTRABQ
METAR KABQ 220352Z 11004KT 10SM FEW120 SCT200 03/M02 A2993 RMK AO2
SLP133 T00281022





000
SAUS45 KABQ 220254
MTRCQC
METAR KCQC 220253Z AUTO 29019KT 10SM CLR 02/M03 A2989 RMK AO2 PK WND
30032/0219 SLP117 T00221033 51020





000
SAUS45 KABQ 220254
MTRTCS
METAR KTCS 220253Z AUTO 30013KT 10SM CLR 12/M02 A2992 RMK AO2 SLP104
T01221017 51006 TSNO





000
SAUS45 KABQ 220253
MTRABQ
METAR KABQ 220252Z 00000KT 10SM FEW120 SCT200 06/M02 A2995 RMK AO2
SLP140 T00561017 53002





000
SAUS45 KABQ 220158 COR
MTRCQC
METAR KCQC 220153Z AUTO 30023G29KT 10SM CLR 03/M03 A2987 RMK AO2 PK
WND 29039/0059 SLP109 T00331033





000
SAUS45 KABQ 220158 COR
MTRCQC
METAR KCQC 220153Z AUTO 30023G29KT 10SM CLR 03/M03 A2987 RMK AO2 PK
WND 29039/0059 SLP109 T00331033





000
SAUS45 KABQ 220156 COR
MTRCQC
METAR KCQC 220153Z AUTO 30023G29KT 10SM CLR 03/M03 A2987 RMK AO2 PK
WND 29039/0059 SLP109 T00331033





000
SAUS45 KABQ 220156 COR
MTRCQC
METAR KCQC 220153Z AUTO 30023G29KT 10SM CLR 03/M03 A2987 RMK AO2 PK
WND 29039/0059 SLP109 T00331033





000
SAUS45 KABQ 220155 COR
MTRCQC
METAR KCQC 220153Z AUTO 30023G29KT 10SM CLR 03/M03 A2987 RMK AO2 PK
WND 29039/0059 SLP109 T00331033





000
SAUS45 KABQ 220155 COR
MTRCQC
METAR KCQC 220153Z AUTO 30023G29KT 10SM CLR 03/M03 A2987 RMK AO2 PK
WND 29039/0059 SLP109 T00331033





000
SAUS45 KABQ 220154
MTRCQC
METAR KCQC 220153Z AUTO 30023G29KT 10SM CLR 03/M03 A2987 RMK AO2 PK
WND 29039/0059 SLP109 T00331033





000
SAUS45 KABQ 220154
MTRTCS
METAR KTCS 220153Z AUTO 31009KT 10SM CLR 13/M02 A2992 RMK AO2 SLP106
T01331022 TSNO





000
SAUS45 KABQ 220154
MTRCQC
METAR KCQC 220153Z AUTO 30023G29KT 10SM CLR 03/M03 A2987 RMK AO2 PK
WND 29039/0059 SLP109 T00331033





000
SAUS45 KABQ 220154
MTRTCS
METAR KTCS 220153Z AUTO 31009KT 10SM CLR 13/M02 A2992 RMK AO2 SLP106
T01331022 TSNO





000
SAUS45 KABQ 220153
MTRABQ
METAR KABQ 220152Z 00000KT 10SM FEW120 BKN210 07/M02 A2994 RMK AO2
SLP133 T00721017





000
SAUS45 KABQ 220153
MTRABQ
METAR KABQ 220152Z 00000KT 10SM FEW120 BKN210 07/M02 A2994 RMK AO2
SLP133 T00721017





000
SAUS45 KABQ 220103 COR
MTRCQC
METAR KCQC 220053Z AUTO 29030G38KT 10SM CLR 04/M04 A2984 RMK AO2 PK
WND 30049/0021 SLP098 T00391039





000
SAUS45 KABQ 220103 COR
MTRCQC
METAR KCQC 220053Z AUTO 29030G38KT 10SM CLR 04/M04 A2984 RMK AO2 PK
WND 30049/0021 SLP098 T00391039





000
SAUS45 KABQ 220102 COR
MTRCQC
METAR KCQC 220053Z AUTO 29030G38KT 10SM CLR 04/M04 A2984 RMK AO2 PK
WND 30049/0021 SLP098 T00391039





000
SAUS45 KABQ 220102 COR
MTRCQC
METAR KCQC 220053Z AUTO 29030G38KT 10SM CLR 04/M04 A2984 RMK AO2 PK
WND 30049/0021 SLP098 T00391039





000
SAUS45 KABQ 220101 COR
MTRCQC
METAR KCQC 220053Z AUTO 29030G38KT 10SM CLR 04/M04 A2984 RMK AO2 PK
WND 30049/0021 SLP098 T00391039





000
SAUS45 KABQ 220101 COR
MTRCQC
METAR KCQC 220053Z AUTO 29030G38KT 10SM CLR 04/M04 A2984 RMK AO2 PK
WND 30049/0021 SLP098 T00391039





000
SAUS45 KABQ 220100 COR
MTRCQC
METAR KCQC 220053Z AUTO 29030G38KT 10SM CLR 04/M04 A2984 RMK AO2 PK
WND 30049/0021 SLP098 T00391039





000
SAUS45 KABQ 220100 COR
MTRCQC
METAR KCQC 220053Z AUTO 29030G38KT 10SM CLR 04/M04 A2984 RMK AO2 PK
WND 30049/0021 SLP098 T00391039





000
SAUS45 KABQ 220059 COR
MTRCQC
METAR KCQC 220053Z AUTO 29030G38KT 10SM CLR 04/M04 A2984 RMK AO2 PK
WND 30049/0021 SLP098 T00391039





000
SAUS45 KABQ 220059 COR
MTRCQC
METAR KCQC 220053Z AUTO 29030G38KT 10SM CLR 04/M04 A2984 RMK AO2 PK
WND 30049/0021 SLP098 T00391039





000
SAUS45 KABQ 220058 COR
MTRCQC
METAR KCQC 220053Z AUTO 29030G38KT 10SM CLR 04/M04 A2984 RMK AO2 PK
WND 30049/0021 SLP098 T00391039





000
SAUS45 KABQ 220058 COR
MTRCQC
METAR KCQC 220053Z AUTO 29030G38KT 10SM CLR 04/M04 A2984 RMK AO2 PK
WND 30049/0021 SLP098 T00391039





000
SAUS45 KABQ 220056 COR
MTRCQC
METAR KCQC 220053Z AUTO 29030G38KT 10SM CLR 04/M04 A2984 RMK AO2 PK
WND 30049/0021 SLP098 T00391039





000
SAUS45 KABQ 220056 COR
MTRCQC
METAR KCQC 220053Z AUTO 29030G38KT 10SM CLR 04/M04 A2984 RMK AO2 PK
WND 30049/0021 SLP098 T00391039





000
SAUS45 KABQ 220055
MTRCQC
METAR KCQC 220053Z AUTO 29030G38KT 10SM CLR 04/M04 A2984 RMK AO2 PK
WND 30049/0021 SLP098 T00391039





000
SAUS45 KABQ 220055
MTRCQC
METAR KCQC 220053Z AUTO 29030G38KT 10SM CLR 04/M04 A2984 RMK AO2 PK
WND 30049/0021 SLP098 T00391039





000
SAUS45 KABQ 220054
MTRTCS
METAR KTCS 220053Z AUTO 25004KT 10SM CLR 09/M03 A2991 RMK AO2 SLP109
T00941028 TSNO





000
SAUS45 KABQ 220054
MTRTCS
METAR KTCS 220053Z AUTO 25004KT 10SM CLR 09/M03 A2991 RMK AO2 SLP109
T00941028 TSNO





000
SAUS45 KABQ 220053
MTRABQ
METAR KABQ 220052Z 02007KT 10SM FEW070 FEW120 BKN210 08/M02 A2992
RMK AO2 SLP125 ACSL NE-E T00781017





000
SAUS45 KABQ 220053
MTRABQ
METAR KABQ 220052Z 02007KT 10SM FEW070 FEW120 BKN210 08/M02 A2992
RMK AO2 SLP125 ACSL NE-E T00781017





000
SAUS45 KABQ 212354
MTRTCS
METAR KTCS 212353Z AUTO 00000KT 10SM CLR 13/M03 A2990 RMK AO2 SLP095
T01331028 10139 20089 56008 TSNO





000
SAUS45 KABQ 212354
MTRCQC
METAR KCQC 212353Z AUTO 30036G48KT 10SM CLR 04/M04 A2981 RMK AO2 PK
WND 30050/2319 SLP084 T00441039 10072 20044 53009





000
SAUS45 KABQ 212354
MTRTCS
METAR KTCS 212353Z AUTO 00000KT 10SM CLR 13/M03 A2990 RMK AO2 SLP095
T01331028 10139 20089 56008 TSNO





000
SAUS45 KABQ 212354
MTRCQC
METAR KCQC 212353Z AUTO 30036G48KT 10SM CLR 04/M04 A2981 RMK AO2 PK
WND 30050/2319 SLP084 T00441039 10072 20044 53009





000
SAUS45 KABQ 212353
MTRABQ
METAR KABQ 212352Z 03008KT 10SM FEW055 FEW120 SCT200 09/M02 A2994
RMK AO2 SLP120 ACSL NE-E T00891017 10106 20061 53002





000
SAUS45 KABQ 212353
MTRABQ
METAR KABQ 212352Z 03008KT 10SM FEW055 FEW120 SCT200 09/M02 A2994
RMK AO2 SLP120 ACSL NE-E T00891017 10106 20061 53002





000
SAUS45 KABQ 212303 COR
MTRCQC
METAR KCQC 212253Z AUTO 29034G45KT 10SM CLR 06/M04 A2976 RMK AO2 PK
WND 29049/2241 SLP061 T00561039





000
SAUS45 KABQ 212302 COR
MTRCQC
METAR KCQC 212253Z AUTO 29034G45KT 10SM CLR 06/M04 A2976 RMK AO2 PK
WND 29049/2241 SLP061 T00561039





000
SAUS45 KABQ 212301 COR
MTRCQC
METAR KCQC 212253Z AUTO 29034G45KT 10SM CLR 06/M04 A2976 RMK AO2 PK
WND 29049/2241 SLP061 T00561039





000
SAUS45 KABQ 212259 COR
MTRCQC
METAR KCQC 212253Z AUTO 29034G45KT 10SM CLR 06/M04 A2976 RMK AO2 PK
WND 29049/2241 SLP061 T00561039





000
SAUS45 KABQ 212258 COR
MTRCQC
METAR KCQC 212253Z AUTO 29034G45KT 10SM CLR 06/M04 A2976 RMK AO2 PK
WND 29049/2241 SLP061 T00561039





000
SAUS45 KABQ 212257 COR
MTRCQC
METAR KCQC 212253Z AUTO 29034G45KT 10SM CLR 06/M04 A2976 RMK AO2 PK
WND 29049/2241 SLP061 T00561039





000
SAUS45 KABQ 212256 COR
MTRCQC
METAR KCQC 212253Z AUTO 29034G45KT 10SM CLR 06/M04 A2976 RMK AO2 PK
WND 29049/2241 SLP061 T00561039





000
SAUS45 KABQ 212255 COR
MTRCQC
METAR KCQC 212253Z AUTO 29034G45KT 10SM CLR 06/M04 A2976 RMK AO2 PK
WND 29049/2241 SLP061 T00561039





000
SAUS45 KABQ 212254
MTRCQC
METAR KCQC 212253Z AUTO 29034G45KT 10SM CLR 06/M04 A2976 RMK AO2 PK
WND 29049/2241 SLP061 T00561039





000
SAUS45 KABQ 212254
MTRTCS
METAR KTCS 212253Z AUTO 19006KT 10SM CLR 14/M03 A2990 RMK AO2 SLP093
T01391033 TSNO





000
SAUS45 KABQ 212253
MTRABQ
METAR KABQ 212252Z 00000KT 10SM FEW055 BKN200 10/M02 A2991 RMK AO2
SLP118 T01001022





000
SAUS45 KABQ 212154
MTRTCS
METAR KTCS 212153Z AUTO 20010KT 10SM CLR 14/M04 A2991 RMK AO2 SLP097
T01391039 TSNO





000
SAUS45 KABQ 212154
MTRCQC
METAR KCQC 212153Z AUTO 29032G47KT 10SM CLR 06/M04 A2979 RMK AO2 PK
WND 31053/2055 SLP072 T00561044





000
SAUS45 KABQ 212154
MTRTCS
METAR KTCS 212153Z AUTO 20010KT 10SM CLR 14/M04 A2991 RMK AO2 SLP097
T01391039 TSNO





000
SAUS45 KABQ 212153
MTRABQ
METAR KABQ 212152Z 00000KT 10SM FEW055 SCT180 BKN220 10/M02 A2992
RMK AO2 SLP121 T01001022





000
SAUS45 KABQ 212153
MTRABQ
METAR KABQ 212152Z 00000KT 10SM FEW055 SCT180 BKN220 10/M02 A2992
RMK AO2 SLP121 T01001022





000
SAUS45 KABQ 212058 COR
MTRCQC
METAR KCQC 212053Z AUTO 30037G47KT 10SM CLR 07/M04 A2978 RMK AO2 PK
WND 30047/2048 SLP063 T00721039 58024





000
SAUS45 KABQ 212056 COR
MTRCQC
METAR KCQC 212053Z AUTO 30037G47KT 10SM CLR 07/M04 A2978 RMK AO2 PK
WND 30047/2048 SLP063 T00721039 58024





000
SAUS45 KABQ 212055 COR
MTRCQC
METAR KCQC 212053Z AUTO 30037G47KT 10SM CLR 07/M04 A2978 RMK AO2 PK
WND 30047/2048 SLP063 T00721039 58024





000
SAUS45 KABQ 212054
MTRCQC
METAR KCQC 212053Z AUTO 30037G47KT 10SM CLR 07/M04 A2978 RMK AO2 PK
WND 30047/2048 SLP063 T00721039 58024





000
SAUS45 KABQ 212054
MTRTCS
METAR KTCS 212053Z AUTO 18011KT 10SM CLR 13/M04 A2992 RMK AO2 SLP105
T01281044 56034 TSNO





000
SAUS45 KABQ 212053
MTRABQ
METAR KABQ 212052Z 36004KT 10SM FEW055 SCT180 BKN240 09/M03 A2993
RMK AO2 PRESFR SLP120 T00891028 58024





000
SAUS45 KABQ 212001 COR
MTRCQC
METAR KCQC 211953Z AUTO 30032G40KT 10SM CLR 07/M04 A2982 RMK AO2 PK
WND 29044/1930 PRESFR SLP077 T00671039





000
SAUS45 KABQ 212001 COR
MTRCQC
METAR KCQC 211953Z AUTO 30032G40KT 10SM CLR 07/M04 A2982 RMK AO2 PK
WND 29044/1930 PRESFR SLP077 T00671039





000
SAUS45 KABQ 211959 COR
MTRCQC
METAR KCQC 211953Z AUTO 30032G40KT 10SM CLR 07/M04 A2982 RMK AO2 PK
WND 29044/1930 PRESFR SLP077 T00671039





000
SAUS45 KABQ 211959 COR
MTRCQC
METAR KCQC 211953Z AUTO 30032G40KT 10SM CLR 07/M04 A2982 RMK AO2 PK
WND 29044/1930 PRESFR SLP077 T00671039





000
SAUS45 KABQ 211958 COR
MTRCQC
METAR KCQC 211953Z AUTO 30032G40KT 10SM CLR 07/M04 A2982 RMK AO2 PK
WND 29044/1930 PRESFR SLP077 T00671039





000
SAUS45 KABQ 211958 COR
MTRCQC
METAR KCQC 211953Z AUTO 30032G40KT 10SM CLR 07/M04 A2982 RMK AO2 PK
WND 29044/1930 PRESFR SLP077 T00671039





000
SAUS45 KABQ 211956 COR
MTRCQC
METAR KCQC 211953Z AUTO 30032G40KT 10SM CLR 07/M04 A2982 RMK AO2 PK
WND 29044/1930 PRESFR SLP077 T00671039





000
SAUS45 KABQ 211956 COR
MTRCQC
METAR KCQC 211953Z AUTO 30032G40KT 10SM CLR 07/M04 A2982 RMK AO2 PK
WND 29044/1930 PRESFR SLP077 T00671039





000
SAUS45 KABQ 211955 COR
MTRCQC
METAR KCQC 211953Z AUTO 30032G40KT 10SM CLR 07/M04 A2982 RMK AO2 PK
WND 29044/1930 PRESFR SLP077 T00671039





000
SAUS45 KABQ 211955 COR
MTRCQC
METAR KCQC 211953Z AUTO 30032G40KT 10SM CLR 07/M04 A2982 RMK AO2 PK
WND 29044/1930 PRESFR SLP077 T00671039





000
SAUS45 KABQ 211954
MTRTCS
METAR KTCS 211953Z AUTO 18007KT 10SM CLR 12/M04 A2996 RMK AO2 SLP117
T01221044 TSNO





000
SAUS45 KABQ 211954
MTRCQC
METAR KCQC 211953Z AUTO 30032G40KT 10SM CLR 07/M04 A2982 RMK AO2 PK
WND 29044/1930 PRESFR SLP077 T00671039





000
SAUS45 KABQ 211954
MTRTCS
METAR KTCS 211953Z AUTO 18007KT 10SM CLR 12/M04 A2996 RMK AO2 SLP117
T01221044 TSNO





000
SAUS45 KABQ 211954
MTRCQC
METAR KCQC 211953Z AUTO 30032G40KT 10SM CLR 07/M04 A2982 RMK AO2 PK
WND 29044/1930 PRESFR SLP077 T00671039





000
SAUS45 KABQ 211953
MTRABQ
METAR KABQ 211952Z 18003KT 10SM FEW055 SCT170 BKN240 07/M02 A2994
RMK AO2 SLP127 T00721022





000
SAUS45 KABQ 211953
MTRABQ
METAR KABQ 211952Z 18003KT 10SM FEW055 SCT170 BKN240 07/M02 A2994
RMK AO2 SLP127 T00721022





000
SAUS45 KABQ 211901 COR
MTRCQC
METAR KCQC 211853Z AUTO 30033G39KT 10SM CLR 05/M04 A2988 RMK AO2 PK
WND 30043/1834 SLP098 T00501039





000
SAUS45 KABQ 211859 COR
MTRCQC
METAR KCQC 211853Z AUTO 30033G39KT 10SM CLR 05/M04 A2988 RMK AO2 PK
WND 30043/1834 SLP098 T00501039





000
SAUS45 KABQ 211858 COR
MTRCQC
METAR KCQC 211853Z AUTO 30033G39KT 10SM CLR 05/M04 A2988 RMK AO2 PK
WND 30043/1834 SLP098 T00501039





000
SAUS45 KABQ 211856 COR
MTRCQC
METAR KCQC 211853Z AUTO 30033G39KT 10SM CLR 05/M04 A2988 RMK AO2 PK
WND 30043/1834 SLP098 T00501039





000
SAUS45 KABQ 211855
MTRTCS
METAR KTCS 211853Z AUTO 21008KT 10SM CLR 12/M03 A2999 RMK AO2 SLP125
T01221033 TSNO





000
SAUS45 KABQ 211855 COR
MTRCQC
METAR KCQC 211853Z AUTO 30033G39KT 10SM CLR 05/M04 A2988 RMK AO2 PK
WND 30043/1834 SLP098 T00501039





000
SAUS45 KABQ 211854
MTRCQC
METAR KCQC 211853Z AUTO 30033G39KT 10SM CLR 05/M04 A2988 RMK AO2 PK
WND 30043/1834 SLP098 T00501039





000
SAUS45 KABQ 211853
MTRABQ
METAR KABQ 211852Z 31006KT 10SM FEW055 SCT170 BKN240 06/M02 A3003
RMK AO2 SLP161 T00611022





000
SAUS45 KABQ 211758 COR
MTRCQC
METAR KCQC 211753Z AUTO 29031G38KT 10SM CLR 06/M04 A2987 RMK AO2 PK
WND 30040/1742 SLP094 T00561044 10056 21022 58012





000
SAUS45 KABQ 211756 COR
MTRCQC
METAR KCQC 211753Z AUTO 29031G38KT 10SM CLR 06/M04 A2987 RMK AO2 PK
WND 30040/1742 SLP094 T00561044 10056 21022 58012





000
SAUS45 KABQ 211755 COR
MTRCQC
METAR KCQC 211753Z AUTO 29031G38KT 10SM CLR 06/M04 A2987 RMK AO2 PK
WND 30040/1742 SLP094 T00561044 10056 21022 58012





000
SAUS45 KABQ 211755
MTRTCS
METAR KTCS 211753Z AUTO 10SM CLR 08/M03 A3004 RMK AO2 SLP151
T00831033 10094 21022 55000 TSNO





000
SAUS45 KABQ 211754
MTRCQC
METAR KCQC 211753Z AUTO 29031G38KT 10SM CLR 06/M04 A2987 RMK AO2 PK
WND 30040/1742 SLP094 T00561044 10056 21022 58012





000
SAUS45 KABQ 211753
MTRABQ
METAR KABQ 211752Z 00000KT 10SM FEW055 SCT100 BKN240 06/M02 A3002
RMK AO2 PRESFR SLP159 ACSL E T00561022 10056 21022 58010





000
SAUS45 KABQ 211703 COR
MTRCQC
METAR KCQC 211653Z AUTO 30027G35KT 10SM CLR 03/M04 A2990 RMK AO2 PK
WND 30035/1614 SLP115 T00281039





000
SAUS45 KABQ 211702 COR
MTRCQC
METAR KCQC 211653Z AUTO 30027G35KT 10SM CLR 03/M04 A2990 RMK AO2 PK
WND 30035/1614 SLP115 T00281039





000
SAUS45 KABQ 211701 COR
MTRCQC
METAR KCQC 211653Z AUTO 30027G35KT 10SM CLR 03/M04 A2990 RMK AO2 PK
WND 30035/1614 SLP115 T00281039





000
SAUS45 KABQ 211659 COR
MTRCQC
METAR KCQC 211653Z AUTO 30027G35KT 10SM CLR 03/M04 A2990 RMK AO2 PK
WND 30035/1614 SLP115 T00281039





000
SAUS45 KABQ 211658 COR
MTRCQC
METAR KCQC 211653Z AUTO 30027G35KT 10SM CLR 03/M04 A2990 RMK AO2 PK
WND 30035/1614 SLP115 T00281039





000
SAUS45 KABQ 211656 COR
MTRCQC
METAR KCQC 211653Z AUTO 30027G35KT 10SM CLR 03/M04 A2990 RMK AO2 PK
WND 30035/1614 SLP115 T00281039





000
SAUS45 KABQ 211655 COR
MTRCQC
METAR KCQC 211653Z AUTO 30027G35KT 10SM CLR 03/M04 A2990 RMK AO2 PK
WND 30035/1614 SLP115 T00281039





000
SAUS45 KABQ 211654
MTRCQC
METAR KCQC 211653Z AUTO 30027G35KT 10SM CLR 03/M04 A2990 RMK AO2 PK
WND 30035/1614 SLP115 T00281039





000
SAUS45 KABQ 211654
MTRTCS
METAR KTCS 211653Z AUTO 20006KT 10SM CLR 06/M03 A3004 RMK AO2 SLP154
T00561033 TSNO





000
SAUS45 KABQ 211653
MTRABQ
METAR KABQ 211652Z 27004KT 10SM FEW060 SCT090 BKN240 03/M02 A3006
RMK AO2 SLP178 ACSL E T00281022





000
SAUS45 KABQ 211554
MTRCQC
METAR KCQC 211553Z AUTO 30024G32KT 10SM CLR 01/M04 A2990 RMK AO2 PK
WND 30032/1553 SLP121 T00111044





000
SAUS45 KABQ 211554
MTRTCS
METAR KTCS 211553Z AUTO 16004KT 10SM CLR 03/M03 A3004 RMK AO2 SLP159
T00331028 TSNO





000
SAUS45 KABQ 211553
MTRABQ
METAR KABQ 211552Z 02003KT 10SM FEW060 BKN090 BKN220 02/M02 A3006
RMK AO2 SLP177 ACSL E T00221022





000
SAUS45 KABQ 211454
MTRCQC
METAR KCQC 211453Z AUTO 31021G28KT 10SM CLR M01/M05 A2992 RMK AO2 PK
WND 30033/1356 SLP134 T10111050 58001





000
SAUS45 KABQ 211454
MTRTCS
METAR KTCS 211453Z AUTO 00000KT 10SM CLR 01/M03 A3004 RMK AO2 SLP162
T00111033 58001 TSNO





000
SAUS45 KABQ 211453
MTRABQ
METAR KABQ 211452Z 00000KT 10SM FEW060 FEW090 BKN240 M01/M04 A3005
RMK AO2 SLP184 ACSL NE-E T10111044 55002





000
SAUS45 KABQ 211358 COR
MTRCQC
METAR KCQC 211353Z AUTO 30026G33KT 10SM CLR M01/M06 A2992 RMK AO2 PK
WND 30033/1353 SLP136 T10111056





000
SAUS45 KABQ 211358 COR
MTRCQC
METAR KCQC 211353Z AUTO 30026G33KT 10SM CLR M01/M06 A2992 RMK AO2 PK
WND 30033/1353 SLP136 T10111056





000
SAUS45 KABQ 211356 COR
MTRCQC
METAR KCQC 211353Z AUTO 30026G33KT 10SM CLR M01/M06 A2992 RMK AO2 PK
WND 30033/1353 SLP136 T10111056





000
SAUS45 KABQ 211356 COR
MTRCQC
METAR KCQC 211353Z AUTO 30026G33KT 10SM CLR M01/M06 A2992 RMK AO2 PK
WND 30033/1353 SLP136 T10111056





000
SAUS45 KABQ 211355 COR
MTRCQC
METAR KCQC 211353Z AUTO 30026G33KT 10SM CLR M01/M06 A2992 RMK AO2 PK
WND 30033/1353 SLP136 T10111056





000
SAUS45 KABQ 211355 COR
MTRCQC
METAR KCQC 211353Z AUTO 30026G33KT 10SM CLR M01/M06 A2992 RMK AO2 PK
WND 30033/1353 SLP136 T10111056





000
SAUS45 KABQ 211354
MTRCQC
METAR KCQC 211353Z AUTO 30026G33KT 10SM CLR M01/M06 A2992 RMK AO2 PK
WND 30033/1353 SLP136 T10111056





000
SAUS45 KABQ 211354
MTRTCS
METAR KTCS 211353Z AUTO 00000KT 10SM CLR M01/M05 A3006 RMK AO2
SLP170 T10111050 TSNO





000
SAUS45 KABQ 211354
MTRCQC
METAR KCQC 211353Z AUTO 30026G33KT 10SM CLR M01/M06 A2992 RMK AO2 PK
WND 30033/1353 SLP136 T10111056





000
SAUS45 KABQ 211354
MTRTCS
METAR KTCS 211353Z AUTO 00000KT 10SM CLR M01/M05 A3006 RMK AO2
SLP170 T10111050 TSNO





000
SAUS45 KABQ 211353
MTRABQ
METAR KABQ 211352Z 22005KT 10SM SCT060 BKN240 M01/M04 A3004 RMK AO2
SLP172 T10061044





000
SAUS45 KABQ 211353
MTRABQ
METAR KABQ 211352Z 22005KT 10SM SCT060 BKN240 M01/M04 A3004 RMK AO2
SLP172 T10061044





000
SAUS45 KABQ 211254
MTRCQC
METAR KCQC 211253Z AUTO 30022KT 10SM CLR M02/M06 A2992 RMK AO2 PK
WND 30033/1204 SLP139 T10221061





000
SAUS45 KABQ 211254
MTRTCS
METAR KTCS 211253Z AUTO 33003KT 10SM CLR M01/M05 A3005 RMK AO2
SLP162 T10061050 TSNO





000
SAUS45 KABQ 211254
MTRTCS
METAR KTCS 211253Z AUTO 33003KT 10SM CLR M01/M05 A3005 RMK AO2
SLP162 T10061050 TSNO





000
SAUS45 KABQ 211254
MTRCQC
METAR KCQC 211253Z AUTO 30022KT 10SM CLR M02/M06 A2992 RMK AO2 PK
WND 30033/1204 SLP139 T10221061





000
SAUS45 KABQ 211253
MTRABQ
METAR KABQ 211252Z 15003KT 10SM SCT065 M01/M04 A3005 RMK AO2 SLP178
T10111044





000
SAUS45 KABQ 211253
MTRABQ
METAR KABQ 211252Z 15003KT 10SM SCT065 M01/M04 A3005 RMK AO2 SLP178
T10111044





000
SAUS45 KABQ 211203 COR
MTRCQC
METAR KCQC 211153Z AUTO 30026G34KT 10SM CLR M01/M06 A2992 RMK AO2 PK
WND 31034/1139 SLP132 T10111061 10011 21022 56015





000
SAUS45 KABQ 211203 COR
MTRCQC
METAR KCQC 211153Z AUTO 30026G34KT 10SM CLR M01/M06 A2992 RMK AO2 PK
WND 31034/1139 SLP132 T10111061 10011 21022 56015





000
SAUS45 KABQ 211202 COR
MTRCQC
METAR KCQC 211153Z AUTO 30026G34KT 10SM CLR M01/M06 A2992 RMK AO2 PK
WND 31034/1139 SLP132 T10111061 10011 21022 56015





000
SAUS45 KABQ 211201 COR
MTRCQC
METAR KCQC 211153Z AUTO 30026G34KT 10SM CLR M01/M06 A2992 RMK AO2 PK
WND 31034/1139 SLP132 T10111061 10011 21022 56015





000
SAUS45 KABQ 211159 COR
MTRCQC
METAR KCQC 211153Z AUTO 30026G34KT 10SM CLR M01/M06 A2992 RMK AO2 PK
WND 31034/1139 SLP132 T10111061 10011 21022 56015





000
SAUS45 KABQ 211159 COR
MTRCQC
METAR KCQC 211153Z AUTO 30026G34KT 10SM CLR M01/M06 A2992 RMK AO2 PK
WND 31034/1139 SLP132 T10111061 10011 21022 56015





000
SAUS45 KABQ 211158 COR
MTRCQC
METAR KCQC 211153Z AUTO 30026G34KT 10SM CLR M01/M06 A2992 RMK AO2 PK
WND 31034/1139 SLP132 T10111061 10011 21022 56015





000
SAUS45 KABQ 211158 COR
MTRCQC
METAR KCQC 211153Z AUTO 30026G34KT 10SM CLR M01/M06 A2992 RMK AO2 PK
WND 31034/1139 SLP132 T10111061 10011 21022 56015





000
SAUS45 KABQ 211156 COR
MTRCQC
METAR KCQC 211153Z AUTO 30026G34KT 10SM CLR M01/M06 A2992 RMK AO2 PK
WND 31034/1139 SLP132 T10111061 10011 21022 56015





000
SAUS45 KABQ 211155
MTRTCS
METAR KTCS 211153Z AUTO 31005KT 10SM CLR 01/M05 A3004 RMK AO2 SLP152
T00111050 10039 20006 55005 TSNO





000
SAUS45 KABQ 211155 COR
MTRCQC
METAR KCQC 211153Z AUTO 30026G34KT 10SM CLR M01/M06 A2992 RMK AO2 PK
WND 31034/1139 SLP132 T10111061 10011 21022 56015





000
SAUS45 KABQ 211155
MTRTCS
METAR KTCS 211153Z AUTO 31005KT 10SM CLR 01/M05 A3004 RMK AO2 SLP152
T00111050 10039 20006 55005 TSNO





000
SAUS45 KABQ 211154
MTRCQC
METAR KCQC 211153Z AUTO 30026G34KT 10SM CLR M01/M06 A2992 RMK AO2 PK
WND 31034/1139 SLP132 T10111061 10011 21022 56015





000
SAUS45 KABQ 211154
MTRCQC
METAR KCQC 211153Z AUTO 30026G34KT 10SM CLR M01/M06 A2992 RMK AO2 PK
WND 31034/1139 SLP132 T10111061 10011 21022 56015





000
SAUS45 KABQ 211153
MTRABQ
METAR KABQ 211152Z 02004KT 10SM BKN070 03/M03 A3006 RMK AO2 SLP170
T00281033 10028 21017 56007





000
SAUS45 KABQ 211153
MTRABQ
METAR KABQ 211152Z 02004KT 10SM BKN070 03/M03 A3006 RMK AO2 SLP170
T00281033 10028 21017 56007





000
SAUS45 KABQ 211103 COR
MTRCQC
METAR KCQC 211053Z AUTO 29023G29KT 10SM CLR M02/M06 A2993 RMK AO2 PK
WND 30030/1020 SLP127 T10171061





000
SAUS45 KABQ 211103 COR
MTRCQC
METAR KCQC 211053Z AUTO 29023G29KT 10SM CLR M02/M06 A2993 RMK AO2 PK
WND 30030/1020 SLP127 T10171061





000
SAUS45 KABQ 211102 COR
MTRCQC
METAR KCQC 211053Z AUTO 29023G29KT 10SM CLR M02/M06 A2993 RMK AO2 PK
WND 30030/1020 SLP127 T10171061





000
SAUS45 KABQ 211102 COR
MTRCQC
METAR KCQC 211053Z AUTO 29023G29KT 10SM CLR M02/M06 A2993 RMK AO2 PK
WND 30030/1020 SLP127 T10171061





000
SAUS45 KABQ 211101 COR
MTRCQC
METAR KCQC 211053Z AUTO 29023G29KT 10SM CLR M02/M06 A2993 RMK AO2 PK
WND 30030/1020 SLP127 T10171061





000
SAUS45 KABQ 211101 COR
MTRCQC
METAR KCQC 211053Z AUTO 29023G29KT 10SM CLR M02/M06 A2993 RMK AO2 PK
WND 30030/1020 SLP127 T10171061





000
SAUS45 KABQ 211059 COR
MTRCQC
METAR KCQC 211053Z AUTO 29023G29KT 10SM CLR M02/M06 A2993 RMK AO2 PK
WND 30030/1020 SLP127 T10171061





000
SAUS45 KABQ 211059 COR
MTRCQC
METAR KCQC 211053Z AUTO 29023G29KT 10SM CLR M02/M06 A2993 RMK AO2 PK
WND 30030/1020 SLP127 T10171061





000
SAUS45 KABQ 211058 COR
MTRCQC
METAR KCQC 211053Z AUTO 29023G29KT 10SM CLR M02/M06 A2993 RMK AO2 PK
WND 30030/1020 SLP127 T10171061





000
SAUS45 KABQ 211058 COR
MTRCQC
METAR KCQC 211053Z AUTO 29023G29KT 10SM CLR M02/M06 A2993 RMK AO2 PK
WND 30030/1020 SLP127 T10171061





000
SAUS45 KABQ 211056 COR
MTRCQC
METAR KCQC 211053Z AUTO 29023G29KT 10SM CLR M02/M06 A2993 RMK AO2 PK
WND 30030/1020 SLP127 T10171061





000
SAUS45 KABQ 211056 COR
MTRCQC
METAR KCQC 211053Z AUTO 29023G29KT 10SM CLR M02/M06 A2993 RMK AO2 PK
WND 30030/1020 SLP127 T10171061





000
SAUS45 KABQ 211055 COR
MTRCQC
METAR KCQC 211053Z AUTO 29023G29KT 10SM CLR M02/M06 A2993 RMK AO2 PK
WND 30030/1020 SLP127 T10171061





000
SAUS45 KABQ 211055 COR
MTRCQC
METAR KCQC 211053Z AUTO 29023G29KT 10SM CLR M02/M06 A2993 RMK AO2 PK
WND 30030/1020 SLP127 T10171061





000
SAUS45 KABQ 211054
MTRTCS
METAR KTCS 211053Z AUTO 28005KT 10SM CLR 03/M04 A3004 RMK AO2 SLP146
T00281044 TSNO





000
SAUS45 KABQ 211054
MTRTCS
METAR KTCS 211053Z AUTO 28005KT 10SM CLR 03/M04 A3004 RMK AO2 SLP146
T00281044 TSNO





000
SAUS45 KABQ 211054
MTRCQC
METAR KCQC 211053Z AUTO 29023G29KT 10SM CLR M02/M06 A2993 RMK AO2 PK
WND 30030/1020 SLP127 T10171061





000
SAUS45 KABQ 211054
MTRCQC
METAR KCQC 211053Z AUTO 29023G29KT 10SM CLR M02/M06 A2993 RMK AO2 PK
WND 30030/1020 SLP127 T10171061





000
SAUS45 KABQ 211053
MTRABQ
METAR KABQ 211052Z 00000KT 10SM SCT070 SCT250 M01/M04 A3007 RMK AO2
SLP180 T10111044





000
SAUS45 KABQ 211053
MTRABQ
METAR KABQ 211052Z 00000KT 10SM SCT070 SCT250 M01/M04 A3007 RMK AO2
SLP180 T10111044





000
SAUS45 KABQ 210954
MTRTCS
METAR KTCS 210953Z AUTO VRB03KT 10SM CLR 02/M04 A3005 RMK AO2 SLP154
T00171044 TSNO





000
SAUS45 KABQ 210954
MTRCQC
METAR KCQC 210953Z AUTO 30021KT 10SM CLR M01/M06 A2995 RMK AO2 PK
WND 30027/0952 SLP129 T10111056





000
SAUS45 KABQ 210954
MTRTCS
METAR KTCS 210953Z AUTO VRB03KT 10SM CLR 02/M04 A3005 RMK AO2 SLP154
T00171044 TSNO





000
SAUS45 KABQ 210954
MTRCQC
METAR KCQC 210953Z AUTO 30021KT 10SM CLR M01/M06 A2995 RMK AO2 PK
WND 30027/0952 SLP129 T10111056





000
SAUS45 KABQ 210953
MTRABQ
METAR KABQ 210952Z 13003KT 10SM SCT065 SCT240 M01/M04 A3007 RMK AO2
SLP182 T10111039





000
SAUS45 KABQ 210953
MTRABQ
METAR KABQ 210952Z 13003KT 10SM SCT065 SCT240 M01/M04 A3007 RMK AO2
SLP182 T10111039





000
SAUS45 KABQ 210953
MTRABQ
METAR KABQ 210952Z 13003KT 10SM SCT065 SCT240 M01/M04 A3007 RMK AO2
SLP182 T10111039





000
SAUS45 KABQ 210854
MTRCQC
METAR KCQC 210853Z AUTO 29018KT 10SM CLR M01/M06 A2998 RMK AO2
SLP141 T10111056 56008





000
SAUS45 KABQ 210854
MTRTCS
METAR KTCS 210853Z AUTO 28007KT 10SM CLR 02/M04 A3006 RMK AO2 SLP156
T00171039 56009 TSNO





000
SAUS45 KABQ 210853
MTRABQ
METAR KABQ 210852Z 00000KT 10SM BKN065 BKN240 02/M03 A3008 RMK AO2
SLP181 T00171028 58004





000
SAUS45 KABQ 210755
MTRTCS
METAR KTCS 210753Z AUTO 00000KT 10SM CLR 03/M04 A3007 RMK AO2 SLP160
T00331044 TSNO





000
SAUS45 KABQ 210755
MTRCQC
METAR KCQC 210753Z AUTO 29017KT 10SM CLR M01/M06 A2998 RMK AO2 PK
WND 28032/0731 SLP151 T10061061





000
SAUS45 KABQ 210753
MTRABQ
METAR KABQ 210752Z 26006KT 10SM FEW250 01/M03 A3010 RMK AO2 SLP191
T00111033





000
SAUS45 KABQ 210658 COR
MTRCQC
METAR KCQC 210653Z AUTO 28020G27KT 10SM CLR 01/M06 A2998 RMK AO2 PK
WND 28027/0650 SLP142 T00111061 400611050





000
SAUS45 KABQ 210656 COR
MTRCQC
METAR KCQC 210653Z AUTO 28020G27KT 10SM CLR 01/M06 A2998 RMK AO2 PK
WND 28027/0650 SLP142 T00111061 400611050





000
SAUS45 KABQ 210656
MTRTCS
METAR KTCS 210653Z AUTO 28004KT 10SM CLR 03/M04 A3007 RMK AO2 SLP160
T00331044 401111033 TSNO





000
SAUS45 KABQ 210655 COR
MTRCQC
METAR KCQC 210653Z AUTO 28020G27KT 10SM CLR 01/M06 A2998 RMK AO2 PK
WND 28027/0650 SLP142 T00111061 400611050





000
SAUS45 KABQ 210654
MTRCQC
METAR KCQC 210653Z AUTO 28020G27KT 10SM CLR 01/M06 A2998 RMK AO2 PK
WND 28027/0650 SLP142 T00111061 400611050





000
SAUS45 KABQ 210653
MTRABQ
METAR KABQ 210652Z 00000KT 10SM SCT250 01/M03 A3009 RMK AO2 SLP188
T00111033 400721044





000
SAUS45 KABQ 210653
MTRABQ
METAR KABQ 210652Z 00000KT 10SM SCT250 01/M03 A3009 RMK AO2 SLP188
T00111033 400721044





000
SAUS45 KABQ 210554
MTRTCS
METAR KTCS 210553Z AUTO 30005KT 10SM CLR 03/M04 A3009 RMK AO2 SLP173
T00281044 10100 20028 56003 TSNO





000
SAUS45 KABQ 210554
MTRCQC
METAR KCQC 210553Z AUTO 28015KT 10SM CLR 01/M06 A3000 RMK AO2 SLP162
T00061061 10011 21017 56012





000
SAUS45 KABQ 210553
MTRABQ
METAR KABQ 210552Z 08003KT 10SM BKN220 01/M03 A3010 RMK AO2 SLP194
T00111028 10056 20006 56001





000
SAUS45 KABQ 210455
MTRCQC
METAR KCQC 210453Z AUTO 29016KT 10SM CLR 01/M07 A3001 RMK AO2 SLP159
T00061067





000
SAUS45 KABQ 210455
MTRCQC
METAR KCQC 210453Z AUTO 29016KT 10SM CLR 01/M07 A3001 RMK AO2 SLP159
T00061067





000
SAUS45 KABQ 210454
MTRTCS
METAR KTCS 210453Z AUTO 29007KT 10SM CLR 03/M05 A3010 RMK AO2 SLP177
T00281050 TSNO





000
SAUS45 KABQ 210454
MTRTCS
METAR KTCS 210453Z AUTO 29007KT 10SM CLR 03/M05 A3010 RMK AO2 SLP177
T00281050 TSNO





000
SAUS45 KABQ 210453
MTRABQ
METAR KABQ 210452Z 00000KT 10SM BKN250 01/M03 A3010 RMK AO2 SLP199
T00111033





000
SAUS45 KABQ 210453
MTRABQ
METAR KABQ 210452Z 00000KT 10SM BKN250 01/M03 A3010 RMK AO2 SLP199
T00111033





000
SAUS45 KABQ 210354
MTRTCS
METAR KTCS 210353Z AUTO 30006KT 10SM CLR 03/M05 A3009 RMK AO2 SLP181
T00331050 TSNO





000
SAUS45 KABQ 210354
MTRTCS
METAR KTCS 210353Z AUTO 30006KT 10SM CLR 03/M05 A3009 RMK AO2 SLP181
T00331050 TSNO





000
SAUS45 KABQ 210354
MTRCQC
METAR KCQC 210353Z AUTO 31010KT 10SM CLR M01/M06 A3002 RMK AO2
SLP175 T10061061





000
SAUS45 KABQ 210354
MTRCQC
METAR KCQC 210353Z AUTO 31010KT 10SM CLR M01/M06 A3002 RMK AO2
SLP175 T10061061





000
SAUS45 KABQ 210353
MTRABQ
METAR KABQ 210352Z 24003KT 10SM BKN240 03/M03 A3009 RMK AO2 SLP196
T00281033





000
SAUS45 KABQ 210353
MTRABQ
METAR KABQ 210352Z 24003KT 10SM BKN240 03/M03 A3009 RMK AO2 SLP196
T00281033





000
SAUS45 KABQ 210254
MTRCQC
METAR KCQC 210253Z AUTO 30011KT 10SM CLR 00/M06 A3005 RMK AO2 SLP187
T00001056 51004





000
SAUS45 KABQ 210254
MTRTCS
METAR KTCS 210253Z AUTO 28004KT 10SM CLR 04/M05 A3010 RMK AO2 SLP187
T00391050 51015 TSNO





000
SAUS45 KABQ 210253
MTRABQ
METAR KABQ 210252Z 12003KT 10SM BKN220 02/M03 A3010 RMK AO2 SLP203
T00221028 50007





000
SAUS45 KABQ 210154
MTRCQC
METAR KCQC 210153Z AUTO 30014KT 10SM CLR 00/M06 A3004 RMK AO2 SLP190
T00001061





000
SAUS45 KABQ 210154
MTRTCS
METAR KTCS 210153Z AUTO 27004KT 10SM CLR 06/M06 A3010 RMK AO2 SLP184
T00561056 TSNO





000
SAUS45 KABQ 210153
MTRABQ
METAR KABQ 210152Z 25003KT 10SM BKN230 04/M03 A3011 RMK AO2 SLP204
T00441033





000
SAUS45 KABQ 210054
MTRTCS
METAR KTCS 210053Z AUTO 00000KT 10SM CLR 08/M07 A3007 RMK AO2 SLP170
T00831067 TSNO





000
SAUS45 KABQ 210054
MTRCQC
METAR KCQC 210053Z AUTO 31012KT 10SM CLR 00/M06 A3003 RMK AO2 SLP187
T00001061





000
SAUS45 KABQ 210053
MTRABQ
METAR KABQ 210052Z 00000KT 10SM BKN250 04/M03 A3010 RMK AO2 SLP195
T00441033





000
SAUS45 KABQ 202354
MTRTCS
METAR KTCS 202353Z AUTO 19004KT 10SM CLR 10/M07 A3005 RMK AO2 SLP161
T01001067 10111 20056 56008 TSNO





000
SAUS45 KABQ 202354
MTRCQC
METAR KCQC 202353Z AUTO 28010KT 10SM CLR 01/M07 A3003 RMK AO2 SLP182
T00111067 10061 21011 52005





000
SAUS45 KABQ 202352
MTRABQ
METAR KABQ 202352Z 12004KT 10SM FEW250 06/M03 A3008 RMK AO2 SLP190
T00561028 10072 20022 58006





000
SAUS45 KABQ 202254
MTRCQC
METAR KCQC 202253Z AUTO 30018KT 10SM CLR 05/M08 A3003 RMK AO2 SLP168
T00501083





000
SAUS45 KABQ 202254
MTRTCS
METAR KTCS 202253Z AUTO VRB03KT 10SM CLR 11/M07 A3006 RMK AO2 SLP157
T01061067 TSNO





000
SAUS45 KABQ 202252
MTRABQ
METAR KABQ 202252Z 00000KT 10SM FEW250 07/M04 A3009 RMK AO2 SLP186
T00671039





000
SAUS45 KABQ 202154
MTRCQC
METAR KCQC 202153Z AUTO 29018KT 10SM CLR 06/M08 A3001 RMK AO2 SLP159
T00561083





000
SAUS45 KABQ 202154
MTRTCS
METAR KTCS 202153Z AUTO VRB04KT 10SM CLR 11/M08 A3007 RMK AO2 SLP162
T01061078 TSNO





000
SAUS45 KABQ 202152
MTRABQ
METAR KABQ 202152Z 00000KT 10SM FEW250 07/M03 A3009 RMK AO2 SLP186
T00671033





000
SAUS45 KABQ 202054
MTRCQC
METAR KCQC 202053Z AUTO 31018KT 10SM CLR 04/M08 A3001 RMK AO2 SLP162
T00441083 56018





000
SAUS45 KABQ 202054
MTRTCS
METAR KTCS 202053Z AUTO VRB04KT 10SM CLR 10/M07 A3008 RMK AO2 SLP169
T01001072 56026 TSNO





000
SAUS45 KABQ 202052
MTRABQ
METAR KABQ 202052Z 00000KT 10SM FEW150 06/M03 A3010 RMK AO2 SLP189
T00611033 58020





000
SAUS45 KABQ 201954
MTRTCS
METAR KTCS 201953Z AUTO 00000KT 10SM CLR 09/M06 A3010 RMK AO2 SLP177
T00891056 TSNO





000
SAUS45 KABQ 201954
MTRCQC
METAR KCQC 201953Z AUTO 29020G23KT 10SM FEW120 01/M08 A3003 RMK AO2
SLP181 T00111083





000
SAUS45 KABQ 201952
MTRABQ
METAR KABQ 201952Z 00000KT 10SM FEW150 04/M04 A3012 RMK AO2 SLP201
T00441039





000
SAUS45 KABQ 201854
MTRTCS
METAR KTCS 201853Z AUTO 10004KT 10SM CLR 07/M04 A3013 RMK AO2 SLP191
T00721044 TSNO





000
SAUS45 KABQ 201854
MTRCQC
METAR KCQC 201853Z AUTO 31015KT 10SM CLR 03/M08 A3004 RMK AO2 SLP178
T00281083





000
SAUS45 KABQ 201852
MTRABQ
METAR KABQ 201852Z 32004KT 10SM FEW150 SCT180 SCT240 04/M04 A3015
RMK AO2 SLP212 T00391039





000
SAUS45 KABQ 201754
MTRCQC
METAR KCQC 201753Z AUTO 32014KT 10SM CLR M01/M09 A3008 RMK AO2
SLP202 T10111089 10011 21050 50005





000
SAUS45 KABQ 201754
MTRTCS
METAR KTCS 201753Z AUTO 05006KT 10SM CLR 06/M04 A3017 RMK AO2 SLP207
T00561044 10056 21033 50002 TSNO





000
SAUS45 KABQ 201752
MTRABQ
METAR KABQ 201752Z 00000KT 10SM FEW065 SCT150 BKN180 BKN250 03/M03
A3017 RMK AO2 SLP218 T00281033 10028 21044 58003





000
SAUS45 KABQ 201654
MTRCQC
METAR KCQC 201653Z AUTO 32013G24KT 10SM CLR 01/M08 A3009 RMK AO2
SLP198 T00061078





000
SAUS45 KABQ 201654
MTRTCS
METAR KTCS 201653Z AUTO VRB03KT 10SM CLR 04/M04 A3017 RMK AO2 SLP211
T00441039 TSNO





000
SAUS45 KABQ 201652
MTRABQ
METAR KABQ 201652Z 00000KT 10SM SCT065 BKN200 BKN250 01/M03 A3019
RMK AO2 SLP230 T00061033





000
SAUS45 KABQ 201554
MTRCQC
METAR KCQC 201553Z AUTO 31016KT 10SM CLR M02/M07 A3006 RMK AO2 PK
WND 30027/1529 SLP194 T10171072





000
SAUS45 KABQ 201554
MTRTCS
METAR KTCS 201553Z AUTO 34003KT 10SM CLR 01/M04 A3016 RMK AO2 SLP212
T00111044 TSNO





000
SAUS45 KABQ 201552
MTRABQ
METAR KABQ 201552Z 00000KT 10SM SCT065 BKN200 BKN250 M01/M04 A3018
RMK AO2 SLP231 T10111039





000
SAUS45 KABQ 201454
MTRCQC
METAR KCQC 201453Z AUTO 31008KT 10SM CLR M04/M08 A3006 RMK AO2
SLP202 T10391078 53006





000
SAUS45 KABQ 201454
MTRTCS
METAR KTCS 201453Z AUTO 31004KT 10SM CLR M01/M06 A3016 RMK AO2
SLP213 T10061056 53002 TSNO





000
SAUS45 KABQ 201452
MTRABQ
METAR KABQ 201452Z 00000KT 10SM BKN230 M02/M05 A3018 RMK AO2 SLP226
T10171050 53003





000
SAUS45 KABQ 201354
MTRCQC
METAR KCQC 201353Z AUTO 31016KT 10SM CLR M05/M08 A3004 RMK AO2
SLP199 T10501083





000
SAUS45 KABQ 201354
MTRTCS
METAR KTCS 201353Z AUTO 33004KT 10SM CLR M01/M06 A3015 RMK AO2
SLP203 T10111061 TSNO





000
SAUS45 KABQ 201352
MTRABQ
METAR KABQ 201352Z 18004KT 10SM BKN240 M03/M06 A3016 RMK AO2 SLP223
T10331061





000
SAUS45 KABQ 201254
MTRTCS
METAR KTCS 201253Z AUTO 33004KT 10SM CLR M02/M06 A3015 RMK AO2
SLP201 T10221061 TSNO





000
SAUS45 KABQ 201254
MTRCQC
METAR KCQC 201253Z AUTO 30020KT 10SM CLR M04/M08 A3003 RMK AO2 PK
WND 31026/1156 SLP190 T10441083





000
SAUS45 KABQ 201252
MTRABQ
METAR KABQ 201252Z 00000KT 10SM SCT240 M01/M05 A3016 RMK AO2 SLP219
T10111050





000
SAUS45 KABQ 201154
MTRTCS
METAR KTCS 201153Z AUTO 00000KT 10SM CLR M02/M06 A3015 RMK AO2
SLP199 T10221061 10022 21022 58002 TSNO





000
SAUS45 KABQ 201154
MTRCQC
METAR KCQC 201153Z AUTO 30021KT 10SM CLR M04/M08 A3004 RMK AO2 PK
WND 32031/1054 SLP188 T10441078 11039 21050 58005





000
SAUS45 KABQ 201152
MTRABQ
METAR KABQ 201152Z 23003KT 10SM SCT240 M02/M05 A3017 RMK AO2 SLP220
T10221050 10017 21022 58003





000
SAUS45 KABQ 201058 COR
MTRCQC
METAR KCQC 201053Z AUTO 31023G29KT 10SM CLR M04/M08 A3005 RMK AO2 PK
WND 31029/1007 SLP181 T10391078





000
SAUS45 KABQ 201056 COR
MTRCQC
METAR KCQC 201053Z AUTO 31023G29KT 10SM CLR M04/M08 A3005 RMK AO2 PK
WND 31029/1007 SLP181 T10391078





000
SAUS45 KABQ 201055 COR
MTRCQC
METAR KCQC 201053Z AUTO 31023G29KT 10SM CLR M04/M08 A3005 RMK AO2 PK
WND 31029/1007 SLP181 T10391078





000
SAUS45 KABQ 201054
MTRCQC
METAR KCQC 201053Z AUTO 31023G29KT 10SM CLR M04/M08 A3005 RMK AO2 PK
WND 31029/1007 SLP181 T10391078





000
SAUS45 KABQ 201054
MTRTCS
METAR KTCS 201053Z AUTO 34006KT 10SM CLR 00/M06 A3016 RMK AO2 SLP196
T00001056 TSNO





000
SAUS45 KABQ 201052
MTRABQ
METAR KABQ 201052Z 36005KT 10SM FEW240 00/M05 A3018 RMK AO2 SLP216
T00001050





000
SAUS45 KABQ 200954
MTRTCS
METAR KTCS 200953Z AUTO 30006KT 10SM CLR M01/M06 A3016 RMK AO2
SLP197 T10111056 TSNO





000
SAUS45 KABQ 200954
MTRCQC
METAR KCQC 200953Z AUTO 31019KT 10SM CLR M04/M08 A3006 RMK AO2 PK
WND 31027/0925 SLP181 T10391078





000
SAUS45 KABQ 200952
MTRABQ
METAR KABQ 200952Z 34006KT 10SM FEW250 00/M04 A3018 RMK AO2 SLP218
T00001044





000
SAUS45 KABQ 200854
MTRCQC
METAR KCQC 200853Z AUTO 31018KT 10SM CLR M04/M08 A3005 RMK AO2
SLP180 T10391078 58006





000
SAUS45 KABQ 200854
MTRTCS
METAR KTCS 200853Z AUTO 29004KT 10SM CLR M01/M05 A3016 RMK AO2
SLP199 T10111050 58005 TSNO





000
SAUS45 KABQ 200852
MTRABQ
METAR KABQ 200852Z 02005KT 10SM FEW250 00/M04 A3018 RMK AO2 SLP216
T00001044 56009





000
SAUS45 KABQ 200754
MTRCQC
METAR KCQC 200753Z AUTO 30020KT 10SM CLR M04/M07 A3006 RMK AO2
SLP186 T10441072





000
SAUS45 KABQ 200754
MTRTCS
METAR KTCS 200753Z AUTO 32007KT 10SM CLR M01/M05 A3017 RMK AO2
SLP202 T10061050 TSNO





000
SAUS45 KABQ 200754
MTRCQC
METAR KCQC 200753Z AUTO 30020KT 10SM CLR M04/M07 A3006 RMK AO2
SLP186 T10441072





000
SAUS45 KABQ 200754
MTRTCS
METAR KTCS 200753Z AUTO 32007KT 10SM CLR M01/M05 A3017 RMK AO2
SLP202 T10061050 TSNO





000
SAUS45 KABQ 200752
MTRABQ
METAR KABQ 200752Z 36004KT 10SM FEW250 00/M04 A3018 RMK AO2 SLP217
T00001044





000
SAUS45 KABQ 200752
MTRABQ
METAR KABQ 200752Z 36004KT 10SM FEW250 00/M04 A3018 RMK AO2 SLP217
T00001044





000
SAUS45 KABQ 200655
MTRTCS
METAR KTCS 200653Z AUTO 29004KT 10SM CLR M01/M05 A3018 RMK AO2
SLP211 T10111050 401001017 TSNO





000
SAUS45 KABQ 200654
MTRCQC
METAR KCQC 200653Z AUTO 31018G25KT 10SM CLR M04/M08 A3007 RMK AO2
SLP190 T10391078 400391050





000
SAUS45 KABQ 200652
MTRABQ
METAR KABQ 200652Z 01005KT 10SM FEW250 01/M04 A3020 RMK AO2 SLP224
T00061044 400721006





000
SAUS45 KABQ 200555
MTRTCS
METAR KTCS 200553Z AUTO 00000KT 10SM CLR 00/M04 A3018 RMK AO2 SLP210
T00001044 10083 21006 53004 TSNO





000
SAUS45 KABQ 200554
MTRCQC
METAR KCQC 200553Z AUTO 31020KT 10SM CLR M04/M07 A3008 RMK AO2
SLP198 T10391072 10000 21039 58002





000
SAUS45 KABQ 200552
MTRABQ
METAR KABQ 200552Z 35006KT 10SM FEW250 01/M04 A3021 RMK AO2 SLP229
T00111044 10050 20011 53006





000
SAUS45 KABQ 200454
MTRTCS
METAR KTCS 200453Z AUTO 27004KT 10SM CLR 00/M04 A3016 RMK AO2 SLP207
T00001044 TSNO





000
SAUS45 KABQ 200454
MTRCQC
METAR KCQC 200453Z AUTO 31014KT 10SM CLR M03/M07 A3009 RMK AO2
SLP203 T10331067





000
SAUS45 KABQ 200452
MTRABQ
METAR KABQ 200452Z 32004KT 10SM FEW250 02/M04 A3020 RMK AO2 SLP225
T00171044





000
SAUS45 KABQ 200354
MTRTCS
METAR KTCS 200353Z AUTO 31006KT 10SM CLR 01/M04 A3016 RMK AO2 SLP208
T00111039 TSNO





000
SAUS45 KABQ 200354
MTRCQC
METAR KCQC 200353Z AUTO 33014G20KT 10SM CLR M02/M07 A3009 RMK AO2
SLP206 T10221067





000
SAUS45 KABQ 200354
MTRCQC
METAR KCQC 200353Z AUTO 33014G20KT 10SM CLR M02/M07 A3009 RMK AO2
SLP206 T10221067





000
SAUS45 KABQ 200354
MTRTCS
METAR KTCS 200353Z AUTO 31006KT 10SM CLR 01/M04 A3016 RMK AO2 SLP208
T00111039 TSNO





000
SAUS45 KABQ 200352
MTRABQ
METAR KABQ 200352Z 36006KT 10SM FEW250 02/M04 A3019 RMK AO2 SLP223
T00221044





000
SAUS45 KABQ 200352
MTRABQ
METAR KABQ 200352Z 36006KT 10SM FEW250 02/M04 A3019 RMK AO2 SLP223
T00221044





000
SAUS45 KABQ 200254
MTRCQC
METAR KCQC 200253Z AUTO 30018KT 10SM CLR M03/M06 A3008 RMK AO2
SLP210 T10281061 55002





000
SAUS45 KABQ 200254
MTRTCS
METAR KTCS 200253Z AUTO 30006KT 10SM CLR 02/M03 A3017 RMK AO2 SLP210
T00171033 53010 TSNO





000
SAUS45 KABQ 200252
MTRABQ
METAR KABQ 200252Z 33008KT 10SM FEW250 03/M04 A3019 RMK AO2 SLP224
T00331044 53004





000
SAUS45 KABQ 200154
MTRCQC
METAR KCQC 200153Z AUTO 30018KT 10SM CLR M03/M06 A3008 RMK AO2
SLP212 T10281061





000
SAUS45 KABQ 200154
MTRTCS
METAR KTCS 200153Z AUTO 13003KT 10SM CLR 05/M03 A3016 RMK AO2 SLP204
T00501033 TSNO





000
SAUS45 KABQ 200154
MTRCQC
METAR KCQC 200153Z AUTO 30018KT 10SM CLR M03/M06 A3008 RMK AO2
SLP212 T10281061





000
SAUS45 KABQ 200154
MTRTCS
METAR KTCS 200153Z AUTO 13003KT 10SM CLR 05/M03 A3016 RMK AO2 SLP204
T00501033 TSNO





000
SAUS45 KABQ 200153
MTRABQ
METAR KABQ 200152Z 35008KT 10SM FEW250 04/M05 A3018 RMK AO2 SLP222
T00391050





000
SAUS45 KABQ 200153
MTRABQ
METAR KABQ 200152Z 35008KT 10SM FEW250 04/M05 A3018 RMK AO2 SLP222
T00391050





000
SAUS45 KABQ 200054
MTRTCS
METAR KTCS 200053Z AUTO 11004KT 10SM CLR 06/M03 A3014 RMK AO2 SLP196
T00611033 TSNO





000
SAUS45 KABQ 200054
MTRCQC
METAR KCQC 200053Z AUTO 29017KT 10SM CLR M02/M06 A3008 RMK AO2
SLP210 T10171061





000
SAUS45 KABQ 200053
MTRABQ
METAR KABQ 200052Z 34009KT 10SM FEW045 FEW250 04/M06 A3017 RMK AO2
SLP220 T00441056





000
SAUS45 KABQ 192355
MTRTCS
METAR KTCS 192353Z AUTO 06005KT 10SM CLR 08/M03 A3013 RMK AO2 SLP185
T00831033 10100 20056 56009 TSNO





000
SAUS45 KABQ 192354
MTRCQC
METAR KCQC 192353Z AUTO 30016KT 10SM CLR 00/M06 A3009 RMK AO2 SLP207
T00001061 10039 20000 53001





000
SAUS45 KABQ 192353
MTRABQ
METAR KABQ 192352Z 33010KT 10SM FEW045 FEW250 05/M05 A3017 RMK AO2
SLP217 T00501050 10072 20044 55002





000
SAUS45 KABQ 192254
MTRTCS
METAR KTCS 192253Z AUTO 11005KT 10SM CLR 09/M03 A3014 RMK AO2 SLP185
T00941033 TSNO





000
SAUS45 KABQ 192254
MTRCQC
METAR KCQC 192253Z AUTO 30018KT 10SM CLR 02/M06 A3009 RMK AO2 SLP195
T00221056





000
SAUS45 KABQ 192253
MTRABQ
METAR KABQ 192252Z 33015KT 10SM FEW045 FEW250 06/M05 A3017 RMK AO2
SLP214 T00611050





000
SAUS45 KABQ 192154
MTRTCS
METAR KTCS 192153Z AUTO 00000KT 10SM CLR 09/M04 A3014 RMK AO2 SLP187
T00941044 TSNO





000
SAUS45 KABQ 192154
MTRCQC
METAR KCQC 192153Z AUTO 30017G24KT 10SM CLR 03/M06 A3009 RMK AO2
SLP191 T00331061





000
SAUS45 KABQ 192153
MTRABQ
METAR KABQ 192152Z 34012KT 10SM FEW047 07/M05 A3018 RMK AO2 SLP213
MTN TOPS OBSC NE T00671050





000
SAUS45 KABQ 192058 COR
MTRCQC
METAR KCQC 192053Z AUTO 30020G24KT 10SM CLR 03/M06 A3009 RMK AO2 PK
WND 31029/2005 SLP191 T00331056 55013





000
SAUS45 KABQ 192056 COR
MTRCQC
METAR KCQC 192053Z AUTO 30020G24KT 10SM CLR 03/M06 A3009 RMK AO2 PK
WND 31029/2005 SLP191 T00331056 55013





000
SAUS45 KABQ 192055 COR
MTRCQC
METAR KCQC 192053Z AUTO 30020G24KT 10SM CLR 03/M06 A3009 RMK AO2 PK
WND 31029/2005 SLP191 T00331056 55013





000
SAUS45 KABQ 192055
MTRTCS
METAR KTCS 192053Z AUTO 05005KT 10SM CLR 09/M04 A3016 RMK AO2 SLP193
T00891044 56023 TSNO





000
SAUS45 KABQ 192054
MTRCQC
METAR KCQC 192053Z AUTO 30020G24KT 10SM CLR 03/M06 A3009 RMK AO2 PK
WND 31029/2005 SLP191 T00331056 55013





000
SAUS45 KABQ 192053
MTRABQ
METAR KABQ 192052Z 32018G24KT 10SM FEW045 07/M04 A3018 RMK AO2
SLP214 MTNS OBSC NE T00671044 56018





000
SAUS45 KABQ 191954
MTRCQC
METAR KCQC 191953Z AUTO 32020G27KT 10SM CLR 03/M06 A3008 RMK AO2 PK
WND 30028/1926 SLP190 T00281056





000
SAUS45 KABQ 191954
MTRTCS
METAR KTCS 191953Z AUTO 09004KT 10SM CLR 08/M03 A3018 RMK AO2 SLP199
T00831033 TSNO





000
SAUS45 KABQ 191954
MTRCQC
METAR KCQC 191953Z AUTO 32020G27KT 10SM CLR 03/M06 A3008 RMK AO2 PK
WND 30028/1926 SLP190 T00281056





000
SAUS45 KABQ 191954
MTRTCS
METAR KTCS 191953Z AUTO 09004KT 10SM CLR 08/M03 A3018 RMK AO2 SLP199
T00831033 TSNO





000
SAUS45 KABQ 191953
MTRABQ
METAR KABQ 191952Z 35011KT 10SM FEW040 06/M04 A3019 RMK AO2 SLP216
MTNS OBSC NE T00611044





000
SAUS45 KABQ 191953
MTRABQ
METAR KABQ 191952Z 35011KT 10SM FEW040 06/M04 A3019 RMK AO2 SLP216
MTNS OBSC NE T00611044





000
SAUS45 KABQ 191854
MTRTCS
METAR KTCS 191853Z AUTO VRB04KT 10SM CLR 07/M02 A3021 RMK AO2 SLP208
T00671017 TSNO





000
SAUS45 KABQ 191854
MTRCQC
METAR KCQC 191853Z AUTO 31020G26KT 10SM CLR 02/M05 A3010 RMK AO2 PK
WND 30026/1844 SLP197 T00221050





000
SAUS45 KABQ 191854
MTRCQC
METAR KCQC 191853Z AUTO 31020G26KT 10SM CLR 02/M05 A3010 RMK AO2 PK
WND 30026/1844 SLP197 T00221050





000
SAUS45 KABQ 191854
MTRTCS
METAR KTCS 191853Z AUTO VRB04KT 10SM CLR 07/M02 A3021 RMK AO2 SLP208
T00671017 TSNO





000
SAUS45 KABQ 191853
MTRABQ
METAR KABQ 191852Z 33011KT 10SM FEW038 06/M04 A3021 RMK AO2 SLP231
MTNS OBSC NE-SE T00561039





000
SAUS45 KABQ 191754
MTRCQC
METAR KCQC 191753Z AUTO 31018KT 10SM CLR 01/M05 A3013 RMK AO2 PK WND
30027/1702 SLP215 T00061050 10006 21050 50009





000
SAUS45 KABQ 191754
MTRTCS
METAR KTCS 191753Z AUTO 12003KT 10SM CLR 06/M02 A3024 RMK AO2 SLP223
T00561022 10056 21017 50008 TSNO





000
SAUS45 KABQ 191753
MTRABQ
METAR KABQ 191752Z 33008G18KT 10SM SCT035 04/M04 A3024 RMK AO2
SLP243 MTNS OBSC NE-SE T00441044 10044 21006 50006





000
SAUS45 KABQ 191654
MTRCQC
METAR KCQC 191653Z AUTO 30019KT 10SM CLR 00/M04 A3013 RMK AO2 SLP215
T00001044





000
SAUS45 KABQ 191654
MTRTCS
METAR KTCS 191653Z AUTO 00000KT 10SM CLR 04/M03 A3024 RMK AO2 SLP227
T00391028 TSNO





000
SAUS45 KABQ 191652
MTRABQ
METAR KABQ 191652Z 32017KT 10SM SCT033 04/M04 A3025 RMK AO2 SLP240
MTNS OBSC NE-SE T00391044





000
SAUS45 KABQ 191554
MTRTCS
METAR KTCS 191553Z AUTO 36005KT 10SM CLR 03/M02 A3023 RMK AO2 SLP221
T00331022 TSNO





000
SAUS45 KABQ 191554
MTRCQC
METAR KCQC 191553Z AUTO 31018G24KT 10SM CLR M02/M05 A3012 RMK AO2
SLP212 T10221050





000
SAUS45 KABQ 191553
MTRABQ
METAR KABQ 191552Z 32008KT 10SM FEW031 03/M04 A3024 RMK AO2 SLP236
MTNS OBSC NE-SE T00281039





000
SAUS45 KABQ 191455
MTRTCS
METAR KTCS 191453Z AUTO 31007KT 10SM CLR 01/M03 A3021 RMK AO2 SLP221
T00111028 53020 TSNO





000
SAUS45 KABQ 191454
MTRCQC
METAR KCQC 191453Z AUTO 30017KT 10SM CLR M04/M06 A3010 RMK AO2
SLP213 T10441061 51013





000
SAUS45 KABQ 191453
MTRABQ
METAR KABQ 191452Z 34004KT 10SM FEW035 01/M04 A3022 RMK AO2 SLP233
MTN TOPS OBSC NE-SE T00111039 51015





000
SAUS45 KABQ 191354
MTRTCS
METAR KTCS 191353Z AUTO 00000KT 10SM CLR M01/M03 A3019 RMK AO2
SLP217 T10111033 TSNO





000
SAUS45 KABQ 191354
MTRCQC
METAR KCQC 191353Z AUTO 30016KT 10SM CLR M05/M07 A3009 RMK AO2
SLP209 T10501067





000
SAUS45 KABQ 191353
MTRABQ
METAR KABQ 191352Z 02004KT 10SM FEW040 00/M04 A3021 RMK AO2 SLP231
MTN TOPS OBSC NE-SE T00001039





000
SAUS45 KABQ 191254
MTRTCS
METAR KTCS 191253Z AUTO 01005KT 10SM CLR M01/M03 A3016 RMK AO2
SLP205 T10061028 TSNO





000
SAUS45 KABQ 191254
MTRCQC
METAR KCQC 191253Z AUTO 30015KT 10SM CLR M05/M06 A3007 RMK AO2
SLP200 T10501061





000
SAUS45 KABQ 191253
MTRABQ
METAR KABQ 191252Z 36005KT 10SM CLR 00/M03 A3018 RMK AO2 SLP223
T00001033





000
SAUS45 KABQ 191154
MTRCQC
METAR KCQC 191153Z AUTO 30017KT 10SM CLR M04/M06 A3005 RMK AO2
SLP190 T10441061 11022 21044 51001





000
SAUS45 KABQ 191154
MTRTCS
METAR KTCS 191153Z AUTO 33005KT 10SM CLR 01/M03 A3014 RMK AO2 SLP194
70004 T00111028 10044 20000 52000 TSNO





000
SAUS45 KABQ 191153
MTRABQ
METAR KABQ 191152Z 35005KT 10SM CLR 01/M03 A3017 RMK AO2 SLP212
T00061033 10022 21006 50001





000
SAUS45 KABQ 191054
MTRTCS
METAR KTCS 191053Z AUTO 33007KT 10SM CLR 01/M02 A3014 RMK AO2 SLP189
T00111017 TSNO





000
SAUS45 KABQ 191054
MTRCQC
METAR KCQC 191053Z AUTO 30018KT 10SM CLR M04/M06 A3005 RMK AO2
SLP183 T10391056





000
SAUS45 KABQ 191053
MTRABQ
METAR KABQ 191052Z 36007KT 10SM CLR 01/M03 A3017 RMK AO2 SLP212
T00061033





000
SAUS45 KABQ 190954
MTRTCS
METAR KTCS 190953Z AUTO 31007KT 10SM CLR 02/M01 A3015 RMK AO2 SLP193
T00171011 TSNO





000
SAUS45 KABQ 190954
MTRCQC
METAR KCQC 190953Z AUTO 30018KT 10SM CLR M04/M06 A3005 RMK AO2
SLP180 T10391061





000
SAUS45 KABQ 190954
MTRTCS
METAR KTCS 190953Z AUTO 31007KT 10SM CLR 02/M01 A3015 RMK AO2 SLP193
T00171011 TSNO





000
SAUS45 KABQ 190954
MTRCQC
METAR KCQC 190953Z AUTO 30018KT 10SM CLR M04/M06 A3005 RMK AO2
SLP180 T10391061





000
SAUS45 KABQ 190953
MTRABQ
METAR KABQ 190952Z 36006KT 10SM CLR 01/M03 A3017 RMK AO2 SLP213
T00061033





000
SAUS45 KABQ 190953
MTRABQ
METAR KABQ 190952Z 36006KT 10SM CLR 01/M03 A3017 RMK AO2 SLP213
T00061033





000
SAUS45 KABQ 190854
MTRCQC
METAR KCQC 190853Z AUTO 30018KT 10SM CLR M03/M06 A3005 RMK AO2
SLP177 T10331056 58008





000
SAUS45 KABQ 190854
MTRTCS
METAR KTCS 190853Z AUTO 31009KT 10SM FEW075 03/00 A3014 RMK AO2
SLP186 T00280000 55000 TSNO





000
SAUS45 KABQ 190853
MTRABQ
METAR KABQ 190852Z 31008KT 10SM CLR 01/M03 A3016 RMK AO2 SLP208
T00111028 53001





000
SAUS45 KABQ 190754
MTRCQC
METAR KCQC 190753Z AUTO 29016KT 10SM CLR M03/M06 A3005 RMK AO2
SLP179 T10331056





000
SAUS45 KABQ 190754
MTRTCS
METAR KTCS 190753Z AUTO 00000KT 10SM SCT041 OVC080 04/03 A3014 RMK
AO2 SLP179 T00390028 TSNO





000
SAUS45 KABQ 190753
MTRABQ
METAR KABQ 190752Z 33008KT 10SM CLR 02/M03 A3015 RMK AO2 SLP205
T00171028





000
SAUS45 KABQ 190654
MTRTCS
METAR KTCS 190653Z AUTO 00000KT 10SM BKN042 OVC060 04/03 A3015 RMK
AO2 SLP183 T00440028 401000022 TSNO





000
SAUS45 KABQ 190654
MTRCQC
METAR KCQC 190653Z AUTO 29016KT 10SM CLR M03/M06 A3007 RMK AO2
SLP185 T10281056 400391056





000
SAUS45 KABQ 190653
MTRABQ
METAR KABQ 190652Z 36003KT 10SM FEW040 SCT220 00/M03 A3016 RMK AO2
SLP216 MTNS OBSC NE-E T00001028 400721017





000
SAUS45 KABQ 190557
MTRTCS
METAR KTCS 190553Z AUTO 00000KT 10SM SCT050 BKN060 04/03 A3014 RMK
AO2 RAE11 SLP183 P0000 60003 T00390033 10067 20039 51005 TSNO





000
SAUS45 KABQ 190554
MTRCQC
METAR KCQC 190553Z AUTO 30011KT 10SM CLR M03/M06 A3007 RMK AO2
SLP194 T10331056 10006 21033 53003





000
SAUS45 KABQ 190553
MTRABQ
METAR KABQ 190552Z 00000KT 10SM FEW040 SCT220 00/M03 A3016 RMK AO2
SLP215 MTNS OBSC NE-E T00001028 10056 20000 51009





000
SAUS45 KABQ 190539
MTRTCS
SPECI KTCS 190538Z AUTO 00000KT 10SM SCT028 BKN049 BKN055 04/03
A3014 RMK AO2 RAE11 P0000 T00440028 TSNO





000
SAUS45 KABQ 190527
MTRTCS
SPECI KTCS 190525Z AUTO 00000KT 10SM SCT014 BKN028 BKN080 04/03
A3014 RMK AO2 RAE11 P0000 T00440033 TSNO





000
SAUS45 KABQ 190505
MTRTCS
SPECI KTCS 190504Z AUTO 04003KT 10SM -RA SCT007 OVC014 04/04 A3014
RMK AO2 P0000 T00440039 TSNO





000
SAUS45 KABQ 190455
MTRCQC
METAR KCQC 190453Z AUTO 28009KT 10SM CLR M03/M06 A3007 RMK AO2
SLP192 T10281056





000
SAUS45 KABQ 190454
MTRTCS
METAR KTCS 190453Z AUTO 03003KT 10SM -RA BKN007 OVC012 05/04 A3014
RMK AO2 RAB40 SLP182 P0000 T00500039 TSNO





000
SAUS45 KABQ 190453
MTRABQ
METAR KABQ 190452Z 23003KT 10SM FEW035 FEW110 BKN220 03/M02 A3015
RMK AO2 SLP210 MTNS OBSC NE-E T00281017





000
SAUS45 KABQ 190443
MTRTCS
SPECI KTCS 190442Z AUTO 05003KT 10SM -RA BKN007 BKN012 OVC017 05/04
A3014 RMK AO2 RAB40 P0000 T00500039 TSNO





000
SAUS45 KABQ 190436
MTRTCS
SPECI KTCS 190434Z AUTO 04003KT 10SM SCT007 OVC016 05/04 A3014 RMK
AO2 T00500039 TSNO





    US Dept of Commerce
    National Oceanic and Atmospheric Administration
    National Weather Service
    1325 East West Highway
    Silver Spring, MD 20910
    Page Author: NWS Internet Services Team
Disclaimer
Information Quality
Credits
Glossary
Privacy Policy
Freedom of Information Act (FOIA)
About Us
Career Opportunities